Gaylord, MI

1:37 AM EDT on September 27, 2016 (GMT -0400)
Alpine Center | | Change Station

Elev 1385 ft 45.04 °N, 84.67 °W | Updated 1 second ago

Light Rain
Light Rain
48.0 °F
Feels Like 45 °F
N
7.0
Wind Variable Wind from ESE

Today
High -- | Low -- °F
--% Chance of Precip.
Yesterday
High -- | Low -- °F
Precip. -- in
Pressure 29.69 in
Visibility 9.0 miles
Clouds Scattered Clouds 1700 ft
Mostly Cloudy 2300 ft
Overcast 4800 ft
Windchill 45 °F
Dew Point 44 °F
Humidity 86%
Rainfall 0.04 in
Snow Depth Not available.
7:32 AM 7:25 PM
Waning Crescent, 14% visible
SPECI KGLR 270509Z AUTO 22008KT 9SM -RA SCT017 BKN023 OVC048 10/08 A2969 RMK AO2 P0000 T01000078
Pressure 29.69 in
Visibility 9.0 miles
Clouds Scattered Clouds 1700 ft
Mostly Cloudy 2300 ft
Overcast 4800 ft
Windchill 45 °F
Dew Point 44 °F
Humidity 86%
Rainfall 0.04 in
Snow Depth Not available.
7:32 AM 7:25 PM
Waning Crescent, 14% visible
SPECI KGLR 270509Z AUTO 22008KT 9SM -RA SCT017 BKN023 OVC048 10/08 A2969 RMK AO2 P0000 T01000078

10-Day Weather Forecast

Almanac

Astronomy

Sep. 27, 2016 Rise Set
Actual Time
Civil Twilight
Nautical Twilight
Astronomical Twilight
Moon
Length of Visible Light
Length of Day
Tomorrow will be .
, % of the Moon is Illuminated

Today's Extremes

State Highs State Lows

Community

WunderPhotos

Upload Photos

1,942,037 photos uploaded!

WunderBlog® & News

Nearby

Air Quality

  Air Quality AQ Index Pollutant
Not available.

Snow Depth

Station Depth Elevation

Earthquake Activity

City Distance Mag. Time & Date
Minimum magnitude displayed is 2.5.

Coastal Water Temperatures

Place Temperature

Stations

Nearby Weather Stations

Station Location Temp. Windchill Dew Point Humidity Wind Precip. Elev Updated Type
                   

Watches & Warnings

There are currently no watches in effect.